sensor_id;sensor_type;location;lat;lon;timestamp;P1;durP1;ratioP1;P2;durP2;ratioP2
80131;SDS011;69442;51.442;10.564;2023-07-08T00:02:09;5.25;;;2.70;;
80131;SDS011;69442;51.442;10.564;2023-07-08T00:04:36;4.65;;;2.15;;
80131;SDS011;69442;51.442;10.564;2023-07-08T00:07:02;5.50;;;2.00;;
80131;SDS011;69442;51.442;10.564;2023-07-08T00:09:27;3.72;;;2.10;;
80131;SDS011;69442;51.442;10.564;2023-07-08T00:11:53;4.13;;;1.98;;
80131;SDS011;69442;51.442;10.564;2023-07-08T00:14:18;3.83;;;2.17;;
80131;SDS011;69442;51.442;10.564;2023-07-08T00:16:43;3.42;;;2.08;;
80131;SDS011;69442;51.442;10.564;2023-07-08T00:19:09;3.08;;;2.00;;
80131;SDS011;69442;51.442;10.564;2023-07-08T00:21:35;3.40;;;2.15;;
80131;SDS011;69442;51.442;10.564;2023-07-08T00:24:01;4.32;;;2.42;;
80131;SDS011;69442;51.442;10.564;2023-07-08T00:26:27;4.90;;;2.47;;
80131;SDS011;69442;51.442;10.564;2023-07-08T00:28:54;4.47;;;2.30;;
80131;SDS011;69442;51.442;10.564;2023-07-08T00:31:21;4.75;;;2.22;;
80131;SDS011;69442;51.442;10.564;2023-07-08T00:33:51;3.50;;;2.30;;
80131;SDS011;69442;51.442;10.564;2023-07-08T00:36:20;3.97;;;2.38;;
80131;SDS011;69442;51.442;10.564;2023-07-08T00:38:45;12.48;;;2.65;;
80131;SDS011;69442;51.442;10.564;2023-07-08T00:41:12;4.25;;;2.20;;
80131;SDS011;69442;51.442;10.564;2023-07-08T00:43:47;4.00;;;2.13;;
80131;SDS011;69442;51.442;10.564;2023-07-08T00:48:56;3.20;;;2.20;;
80131;SDS011;69442;51.442;10.564;2023-07-08T00:51:23;5.32;;;2.33;;
80131;SDS011;69442;51.442;10.564;2023-07-08T00:53:49;4.20;;;2.00;;
80131;SDS011;69442;51.442;10.564;2023-07-08T00:58:48;3.58;;;2.15;;
80131;SDS011;69442;51.442;10.564;2023-07-08T01:01:20;2.67;;;1.80;;
80131;SDS011;69442;51.442;10.564;2023-07-08T01:03:50;3.10;;;2.20;;
80131;SDS011;69442;51.442;10.564;2023-07-08T01:06:18;6.35;;;2.25;;
80131;SDS011;69442;51.442;10.564;2023-07-08T01:08:45;3.38;;;1.90;;
80131;SDS011;69442;51.442;10.564;2023-07-08T01:11:15;5.75;;;2.38;;
80131;SDS011;69442;51.442;10.564;2023-07-08T01:13:41;4.30;;;2.03;;
80131;SDS011;69442;51.442;10.564;2023-07-08T01:16:08;6.38;;;1.90;;
80131;SDS011;69442;51.442;10.564;2023-07-08T01:18:34;3.10;;;2.10;;
80131;SDS011;69442;51.442;10.564;2023-07-08T01:21:02;5.10;;;2.00;;
80131;SDS011;69442;51.442;10.564;2023-07-08T01:23:31;3.93;;;2.10;;
80131;SDS011;69442;51.442;10.564;2023-07-08T01:25:58;3.53;;;2.00;;
80131;SDS011;69442;51.442;10.564;2023-07-08T01:28:24;3.75;;;2.30;;
80131;SDS011;69442;51.442;10.564;2023-07-08T01:30:51;4.50;;;2.40;;
80131;SDS011;69442;51.442;10.564;2023-07-08T01:33:18;6.65;;;2.30;;
80131;SDS011;69442;51.442;10.564;2023-07-08T01:35:46;4.30;;;2.00;;
80131;SDS011;69442;51.442;10.564;2023-07-08T01:38:14;4.72;;;2.20;;
80131;SDS011;69442;51.442;10.564;2023-07-08T01:40:53;5.20;;;2.30;;
80131;SDS011;69442;51.442;10.564;2023-07-08T01:43:20;3.83;;;2.33;;
80131;SDS011;69442;51.442;10.564;2023-07-08T01:45:46;4.47;;;2.42;;
80131;SDS011;69442;51.442;10.564;2023-07-08T01:48:14;2.67;;;1.80;;
80131;SDS011;69442;51.442;10.564;2023-07-08T01:50:42;3.15;;;1.98;;
80131;SDS011;69442;51.442;10.564;2023-07-08T01:53:14;4.50;;;2.28;;
80131;SDS011;69442;51.442;10.564;2023-07-08T01:55:44;4.15;;;2.25;;
80131;SDS011;69442;51.442;10.564;2023-07-08T01:58:10;3.58;;;2.38;;
80131;SDS011;69442;51.442;10.564;2023-07-08T02:00:35;4.07;;;2.30;;
80131;SDS011;69442;51.442;10.564;2023-07-08T02:03:00;4.95;;;2.40;;
80131;SDS011;69442;51.442;10.564;2023-07-08T02:05:26;3.70;;;2.42;;
80131;SDS011;69442;51.442;10.564;2023-07-08T02:07:51;3.03;;;2.03;;
80131;SDS011;69442;51.442;10.564;2023-07-08T02:10:17;5.60;;;2.20;;
80131;SDS011;69442;51.442;10.564;2023-07-08T02:12:42;5.05;;;2.10;;
80131;SDS011;69442;51.442;10.564;2023-07-08T02:15:08;4.57;;;2.60;;
80131;SDS011;69442;51.442;10.564;2023-07-08T02:17:34;5.43;;;3.40;;
80131;SDS011;69442;51.442;10.564;2023-07-08T02:20:00;4.47;;;2.65;;
80131;SDS011;69442;51.442;10.564;2023-07-08T02:22:25;4.57;;;2.00;;
80131;SDS011;69442;51.442;10.564;2023-07-08T02:24:51;4.28;;;2.20;;
80131;SDS011;69442;51.442;10.564;2023-07-08T02:27:16;4.13;;;2.47;;
80131;SDS011;69442;51.442;10.564;2023-07-08T02:29:42;3.58;;;2.25;;
80131;SDS011;69442;51.442;10.564;2023-07-08T02:32:07;4.30;;;2.65;;
80131;SDS011;69442;51.442;10.564;2023-07-08T02:34:34;3.03;;;2.17;;
80131;SDS011;69442;51.442;10.564;2023-07-08T02:37:00;5.10;;;2.60;;
80131;SDS011;69442;51.442;10.564;2023-07-08T02:39:26;3.55;;;1.80;;
80131;SDS011;69442;51.442;10.564;2023-07-08T02:41:51;5.13;;;2.30;;
80131;SDS011;69442;51.442;10.564;2023-07-08T02:44:16;4.28;;;2.15;;
80131;SDS011;69442;51.442;10.564;2023-07-08T02:46:42;5.57;;;2.40;;
80131;SDS011;69442;51.442;10.564;2023-07-08T02:49:07;7.00;;;3.33;;
80131;SDS011;69442;51.442;10.564;2023-07-08T02:51:32;3.17;;;2.30;;
80131;SDS011;69442;51.442;10.564;2023-07-08T02:53:58;4.00;;;3.05;;
80131;SDS011;69442;51.442;10.564;2023-07-08T02:56:23;3.35;;;2.63;;
80131;SDS011;69442;51.442;10.564;2023-07-08T02:58:51;4.43;;;2.70;;
80131;SDS011;69442;51.442;10.564;2023-07-08T03:01:17;3.75;;;2.60;;
80131;SDS011;69442;51.442;10.564;2023-07-08T03:03:43;4.28;;;2.20;;
80131;SDS011;69442;51.442;10.564;2023-07-08T03:06:10;3.35;;;2.33;;
80131;SDS011;69442;51.442;10.564;2023-07-08T03:08:35;3.72;;;2.50;;
80131;SDS011;69442;51.442;10.564;2023-07-08T03:11:01;4.70;;;2.33;;
80131;SDS011;69442;51.442;10.564;2023-07-08T03:13:28;4.45;;;2.50;;
80131;SDS011;69442;51.442;10.564;2023-07-08T03:15:55;3.65;;;2.28;;
80131;SDS011;69442;51.442;10.564;2023-07-08T03:18:21;3.03;;;2.38;;
80131;SDS011;69442;51.442;10.564;2023-07-08T03:20:48;3.97;;;2.20;;
80131;SDS011;69442;51.442;10.564;2023-07-08T03:23:14;4.85;;;2.13;;
80131;SDS011;69442;51.442;10.564;2023-07-08T03:25:39;4.57;;;2.88;;
80131;SDS011;69442;51.442;10.564;2023-07-08T03:28:06;4.10;;;2.15;;
80131;SDS011;69442;51.442;10.564;2023-07-08T03:30:33;4.22;;;2.35;;
80131;SDS011;69442;51.442;10.564;2023-07-08T03:32:59;3.63;;;2.20;;
80131;SDS011;69442;51.442;10.564;2023-07-08T03:35:25;4.78;;;2.40;;
80131;SDS011;69442;51.442;10.564;2023-07-08T03:37:51;3.55;;;2.20;;
80131;SDS011;69442;51.442;10.564;2023-07-08T03:40:17;3.92;;;2.30;;
80131;SDS011;69442;51.442;10.564;2023-07-08T03:42:42;4.20;;;2.10;;
80131;SDS011;69442;51.442;10.564;2023-07-08T03:45:07;4.32;;;2.40;;
80131;SDS011;69442;51.442;10.564;2023-07-08T03:47:33;4.32;;;2.38;;
80131;SDS011;69442;51.442;10.564;2023-07-08T03:49:59;4.80;;;2.28;;
80131;SDS011;69442;51.442;10.564;2023-07-08T03:52:24;3.65;;;2.15;;
80131;SDS011;69442;51.442;10.564;2023-07-08T03:54:50;3.90;;;2.75;;
80131;SDS011;69442;51.442;10.564;2023-07-08T03:57:15;4.53;;;2.15;;
80131;SDS011;69442;51.442;10.564;2023-07-08T03:59:41;3.38;;;2.22;;
80131;SDS011;69442;51.442;10.564;2023-07-08T04:02:08;3.45;;;2.40;;
80131;SDS011;69442;51.442;10.564;2023-07-08T04:04:37;3.67;;;2.35;;
80131;SDS011;69442;51.442;10.564;2023-07-08T04:07:03;4.95;;;2.33;;
80131;SDS011;69442;51.442;10.564;2023-07-08T04:09:29;4.93;;;2.45;;
80131;SDS011;69442;51.442;10.564;2023-07-08T04:11:54;4.97;;;2.50;;
80131;SDS011;69442;51.442;10.564;2023-07-08T04:14:20;4.03;;;2.72;;
80131;SDS011;69442;51.442;10.564;2023-07-08T04:16:53;3.97;;;2.42;;
80131;SDS011;69442;51.442;10.564;2023-07-08T04:19:23;4.05;;;2.35;;
80131;SDS011;69442;51.442;10.564;2023-07-08T04:21:49;4.53;;;2.92;;
80131;SDS011;69442;51.442;10.564;2023-07-08T04:24:15;3.13;;;1.80;;
80131;SDS011;69442;51.442;10.564;2023-07-08T04:26:42;2.97;;;1.70;;
80131;SDS011;69442;51.442;10.564;2023-07-08T04:29:15;5.47;;;2.60;;
80131;SDS011;69442;51.442;10.564;2023-07-08T04:34:08;4.85;;;2.08;;
80131;SDS011;69442;51.442;10.564;2023-07-08T04:36:34;4.22;;;2.13;;
80131;SDS011;69442;51.442;10.564;2023-07-08T04:39:00;3.70;;;2.30;;
80131;SDS011;69442;51.442;10.564;2023-07-08T04:41:27;4.47;;;2.47;;
80131;SDS011;69442;51.442;10.564;2023-07-08T04:43:53;3.65;;;2.33;;
80131;SDS011;69442;51.442;10.564;2023-07-08T04:46:32;2.90;;;2.15;;
80131;SDS011;69442;51.442;10.564;2023-07-08T04:49:04;4.45;;;2.72;;
80131;SDS011;69442;51.442;10.564;2023-07-08T04:51:31;4.90;;;2.80;;
80131;SDS011;69442;51.442;10.564;2023-07-08T04:53:56;4.18;;;1.85;;
80131;SDS011;69442;51.442;10.564;2023-07-08T04:56:22;2.60;;;1.90;;
80131;SDS011;69442;51.442;10.564;2023-07-08T04:58:48;4.50;;;2.45;;
80131;SDS011;69442;51.442;10.564;2023-07-08T05:01:14;4.05;;;2.28;;
80131;SDS011;69442;51.442;10.564;2023-07-08T05:03:39;5.90;;;1.77;;
80131;SDS011;69442;51.442;10.564;2023-07-08T05:06:05;4.85;;;2.05;;
80131;SDS011;69442;51.442;10.564;2023-07-08T05:08:30;5.00;;;2.50;;
80131;SDS011;69442;51.442;10.564;2023-07-08T05:10:55;5.65;;;2.30;;
80131;SDS011;69442;51.442;10.564;2023-07-08T05:13:21;5.13;;;2.60;;
80131;SDS011;69442;51.442;10.564;2023-07-08T05:15:47;3.42;;;2.60;;
80131;SDS011;69442;51.442;10.564;2023-07-08T05:18:13;6.22;;;2.67;;
80131;SDS011;69442;51.442;10.564;2023-07-08T05:20:40;4.82;;;2.50;;
80131;SDS011;69442;51.442;10.564;2023-07-08T05:23:06;7.30;;;2.40;;
80131;SDS011;69442;51.442;10.564;2023-07-08T05:25:32;4.05;;;2.67;;
80131;SDS011;69442;51.442;10.564;2023-07-08T05:27:58;5.53;;;2.28;;
80131;SDS011;69442;51.442;10.564;2023-07-08T05:30:23;4.78;;;2.83;;
80131;SDS011;69442;51.442;10.564;2023-07-08T05:32:49;4.15;;;2.60;;
80131;SDS011;69442;51.442;10.564;2023-07-08T05:35:14;3.10;;;2.30;;
80131;SDS011;69442;51.442;10.564;2023-07-08T05:37:40;4.90;;;2.67;;
80131;SDS011;69442;51.442;10.564;2023-07-08T05:40:09;4.97;;;2.85;;
80131;SDS011;69442;51.442;10.564;2023-07-08T05:42:35;3.55;;;2.53;;
80131;SDS011;69442;51.442;10.564;2023-07-08T05:45:01;3.25;;;2.42;;
80131;SDS011;69442;51.442;10.564;2023-07-08T05:47:27;6.93;;;2.60;;
80131;SDS011;69442;51.442;10.564;2023-07-08T05:49:52;3.92;;;3.05;;
80131;SDS011;69442;51.442;10.564;2023-07-08T05:52:17;3.90;;;2.80;;
80131;SDS011;69442;51.442;10.564;2023-07-08T05:54:43;5.35;;;2.78;;
80131;SDS011;69442;51.442;10.564;2023-07-08T05:57:09;4.88;;;2.70;;
80131;SDS011;69442;51.442;10.564;2023-07-08T05:59:36;2.70;;;1.95;;
80131;SDS011;69442;51.442;10.564;2023-07-08T06:02:04;3.75;;;2.53;;
80131;SDS011;69442;51.442;10.564;2023-07-08T06:04:29;3.97;;;2.67;;
80131;SDS011;69442;51.442;10.564;2023-07-08T06:06:56;3.58;;;2.08;;
80131;SDS011;69442;51.442;10.564;2023-07-08T06:09:21;4.43;;;2.85;;
80131;SDS011;69442;51.442;10.564;2023-07-08T06:11:46;4.55;;;3.30;;
80131;SDS011;69442;51.442;10.564;2023-07-08T06:14:12;3.83;;;2.42;;
80131;SDS011;69442;51.442;10.564;2023-07-08T06:16:37;3.58;;;2.60;;
80131;SDS011;69442;51.442;10.564;2023-07-08T06:19:03;4.25;;;2.83;;
80131;SDS011;69442;51.442;10.564;2023-07-08T06:21:28;4.28;;;3.38;;
80131;SDS011;69442;51.442;10.564;2023-07-08T06:23:53;3.00;;;2.55;;
80131;SDS011;69442;51.442;10.564;2023-07-08T06:26:19;3.47;;;2.33;;
80131;SDS011;69442;51.442;10.564;2023-07-08T06:28:44;5.07;;;3.17;;
80131;SDS011;69442;51.442;10.564;2023-07-08T06:31:10;3.55;;;2.72;;
80131;SDS011;69442;51.442;10.564;2023-07-08T06:33:35;4.32;;;2.85;;
80131;SDS011;69442;51.442;10.564;2023-07-08T06:36:00;3.88;;;2.58;;
80131;SDS011;69442;51.442;10.564;2023-07-08T06:38:26;2.88;;;2.58;;
80131;SDS011;69442;51.442;10.564;2023-07-08T06:40:51;4.72;;;2.92;;
80131;SDS011;69442;51.442;10.564;2023-07-08T06:43:16;4.38;;;2.75;;
80131;SDS011;69442;51.442;10.564;2023-07-08T06:45:42;4.20;;;2.33;;
80131;SDS011;69442;51.442;10.564;2023-07-08T06:48:08;4.72;;;3.25;;
80131;SDS011;69442;51.442;10.564;2023-07-08T06:50:34;4.65;;;2.70;;
80131;SDS011;69442;51.442;10.564;2023-07-08T06:52:59;3.70;;;2.83;;
80131;SDS011;69442;51.442;10.564;2023-07-08T06:55:25;4.75;;;2.60;;
80131;SDS011;69442;51.442;10.564;2023-07-08T06:57:50;4.30;;;3.03;;
80131;SDS011;69442;51.442;10.564;2023-07-08T07:00:16;4.80;;;3.33;;
80131;SDS011;69442;51.442;10.564;2023-07-08T07:02:42;3.78;;;3.15;;
80131;SDS011;69442;51.442;10.564;2023-07-08T07:05:08;6.00;;;3.35;;
80131;SDS011;69442;51.442;10.564;2023-07-08T07:07:34;3.92;;;2.75;;
80131;SDS011;69442;51.442;10.564;2023-07-08T07:09:59;4.20;;;3.03;;
80131;SDS011;69442;51.442;10.564;2023-07-08T07:12:25;5.82;;;3.38;;
80131;SDS011;69442;51.442;10.564;2023-07-08T07:14:51;6.18;;;3.65;;
80131;SDS011;69442;51.442;10.564;2023-07-08T07:17:21;3.50;;;2.97;;
80131;SDS011;69442;51.442;10.564;2023-07-08T07:19:49;4.13;;;2.67;;
80131;SDS011;69442;51.442;10.564;2023-07-08T07:22:14;3.63;;;2.70;;
80131;SDS011;69442;51.442;10.564;2023-07-08T07:24:40;4.43;;;3.00;;
80131;SDS011;69442;51.442;10.564;2023-07-08T07:27:05;4.32;;;3.30;;
80131;SDS011;69442;51.442;10.564;2023-07-08T07:29:40;4.63;;;3.08;;
80131;SDS011;69442;51.442;10.564;2023-07-08T07:32:13;4.30;;;2.80;;
80131;SDS011;69442;51.442;10.564;2023-07-08T07:34:39;4.80;;;3.58;;
80131;SDS011;69442;51.442;10.564;2023-07-08T07:37:06;5.40;;;3.20;;
80131;SDS011;69442;51.442;10.564;2023-07-08T07:39:35;3.28;;;2.90;;
80131;SDS011;69442;51.442;10.564;2023-07-08T07:42:00;5.15;;;3.50;;
80131;SDS011;69442;51.442;10.564;2023-07-08T07:44:26;5.70;;;3.42;;
80131;SDS011;69442;51.442;10.564;2023-07-08T07:46:52;3.97;;;2.50;;
80131;SDS011;69442;51.442;10.564;2023-07-08T07:49:19;3.75;;;3.15;;
80131;SDS011;69442;51.442;10.564;2023-07-08T07:51:44;5.45;;;3.40;;
80131;SDS011;69442;51.442;10.564;2023-07-08T07:54:10;7.97;;;3.25;;
80131;SDS011;69442;51.442;10.564;2023-07-08T07:56:35;5.15;;;3.47;;
80131;SDS011;69442;51.442;10.564;2023-07-08T07:59:01;4.13;;;2.83;;
80131;SDS011;69442;51.442;10.564;2023-07-08T08:01:27;4.82;;;2.92;;
80131;SDS011;69442;51.442;10.564;2023-07-08T08:03:52;5.80;;;3.28;;
80131;SDS011;69442;51.442;10.564;2023-07-08T08:06:18;5.78;;;3.10;;
80131;SDS011;69442;51.442;10.564;2023-07-08T08:08:44;5.63;;;2.90;;
80131;SDS011;69442;51.442;10.564;2023-07-08T08:11:10;6.20;;;3.05;;
80131;SDS011;69442;51.442;10.564;2023-07-08T08:13:35;4.95;;;3.45;;
80131;SDS011;69442;51.442;10.564;2023-07-08T08:16:01;4.15;;;2.90;;
80131;SDS011;69442;51.442;10.564;2023-07-08T08:18:27;4.45;;;2.60;;
80131;SDS011;69442;51.442;10.564;2023-07-08T08:20:52;5.10;;;3.20;;
80131;SDS011;69442;51.442;10.564;2023-07-08T08:23:18;4.78;;;2.90;;
80131;SDS011;69442;51.442;10.564;2023-07-08T08:25:43;5.18;;;2.80;;
80131;SDS011;69442;51.442;10.564;2023-07-08T08:28:09;4.15;;;3.30;;
80131;SDS011;69442;51.442;10.564;2023-07-08T08:30:34;5.95;;;3.63;;
80131;SDS011;69442;51.442;10.564;2023-07-08T08:32:59;3.50;;;2.60;;
80131;SDS011;69442;51.442;10.564;2023-07-08T08:35:25;3.80;;;3.08;;
80131;SDS011;69442;51.442;10.564;2023-07-08T08:37:51;6.70;;;3.53;;
80131;SDS011;69442;51.442;10.564;2023-07-08T08:40:18;5.07;;;3.40;;
80131;SDS011;69442;51.442;10.564;2023-07-08T08:42:46;4.32;;;2.92;;
80131;SDS011;69442;51.442;10.564;2023-07-08T08:45:18;4.95;;;3.08;;
80131;SDS011;69442;51.442;10.564;2023-07-08T08:47:50;4.38;;;2.97;;
80131;SDS011;69442;51.442;10.564;2023-07-08T08:50:28;3.90;;;2.97;;
80131;SDS011;69442;51.442;10.564;2023-07-08T08:53:13;4.78;;;3.30;;
80131;SDS011;69442;51.442;10.564;2023-07-08T08:55:41;4.30;;;3.03;;
80131;SDS011;69442;51.442;10.564;2023-07-08T08:58:30;3.88;;;3.20;;
80131;SDS011;69442;51.442;10.564;2023-07-08T09:00:59;8.10;;;3.67;;
80131;SDS011;69442;51.442;10.564;2023-07-08T09:03:49;4.80;;;3.35;;
80131;SDS011;69442;51.442;10.564;2023-07-08T09:06:25;4.03;;;3.08;;
80131;SDS011;69442;51.442;10.564;2023-07-08T09:08:54;5.43;;;3.10;;
80131;SDS011;69442;51.442;10.564;2023-07-08T09:11:42;3.83;;;2.40;;
80131;SDS011;69442;51.442;10.564;2023-07-08T09:14:15;5.32;;;3.47;;
80131;SDS011;69442;51.442;10.564;2023-07-08T09:16:55;4.05;;;3.28;;
80131;SDS011;69442;51.442;10.564;2023-07-08T09:19:33;4.03;;;3.00;;
80131;SDS011;69442;51.442;10.564;2023-07-08T09:22:04;4.35;;;3.10;;
80131;SDS011;69442;51.442;10.564;2023-07-08T09:24:48;4.60;;;3.30;;
80131;SDS011;69442;51.442;10.564;2023-07-08T09:27:16;4.95;;;3.45;;
80131;SDS011;69442;51.442;10.564;2023-07-08T09:29:42;4.63;;;3.40;;
80131;SDS011;69442;51.442;10.564;2023-07-08T09:32:15;3.83;;;2.78;;
80131;SDS011;69442;51.442;10.564;2023-07-08T09:34:52;4.53;;;3.78;;
80131;SDS011;69442;51.442;10.564;2023-07-08T09:37:29;5.05;;;3.40;;
80131;SDS011;69442;51.442;10.564;2023-07-08T09:40:01;5.07;;;3.17;;
80131;SDS011;69442;51.442;10.564;2023-07-08T09:42:39;4.38;;;3.15;;
80131;SDS011;69442;51.442;10.564;2023-07-08T09:45:14;5.05;;;3.63;;
80131;SDS011;69442;51.442;10.564;2023-07-08T09:47:43;4.18;;;2.83;;
80131;SDS011;69442;51.442;10.564;2023-07-08T09:50:20;4.20;;;3.33;;
80131;SDS011;69442;51.442;10.564;2023-07-08T09:52:51;5.50;;;3.08;;
80131;SDS011;69442;51.442;10.564;2023-07-08T09:55:19;5.70;;;3.00;;
80131;SDS011;69442;51.442;10.564;2023-07-08T09:57:45;6.53;;;3.28;;
80131;SDS011;69442;51.442;10.564;2023-07-08T10:00:14;3.78;;;3.00;;
80131;SDS011;69442;51.442;10.564;2023-07-08T10:05:24;3.78;;;3.05;;
80131;SDS011;69442;51.442;10.564;2023-07-08T10:10:28;4.97;;;3.47;;
80131;SDS011;69442;51.442;10.564;2023-07-08T10:12:57;7.88;;;3.60;;
80131;SDS011;69442;51.442;10.564;2023-07-08T10:15:37;4.95;;;2.85;;
80131;SDS011;69442;51.442;10.564;2023-07-08T10:18:13;4.90;;;3.10;;
80131;SDS011;69442;51.442;10.564;2023-07-08T10:20:48;5.00;;;3.28;;
80131;SDS011;69442;51.442;10.564;2023-07-08T10:31:28;5.22;;;3.50;;
80131;SDS011;69442;51.442;10.564;2023-07-08T10:41:39;4.03;;;3.20;;
80131;SDS011;69442;51.442;10.564;2023-07-08T10:47:22;5.93;;;3.00;;
80131;SDS011;69442;51.442;10.564;2023-07-08T10:52:33;5.13;;;3.25;;
80131;SDS011;69442;51.442;10.564;2023-07-08T10:55:13;4.65;;;2.80;;
80131;SDS011;69442;51.442;10.564;2023-07-08T10:57:53;4.85;;;2.95;;
80131;SDS011;69442;51.442;10.564;2023-07-08T11:01:22;4.43;;;3.20;;
80131;SDS011;69442;51.442;10.564;2023-07-08T11:06:22;4.90;;;3.33;;
80131;SDS011;69442;51.442;10.564;2023-07-08T11:09:07;4.20;;;3.13;;
80131;SDS011;69442;51.442;10.564;2023-07-08T11:14:08;4.90;;;3.33;;
80131;SDS011;69442;51.442;10.564;2023-07-08T11:19:15;4.13;;;3.08;;
80131;SDS011;69442;51.442;10.564;2023-07-08T11:21:49;3.47;;;2.20;;
80131;SDS011;69442;51.442;10.564;2023-07-08T11:29:49;4.10;;;3.20;;
80131;SDS011;69442;51.442;10.564;2023-07-08T11:32:19;6.00;;;2.97;;
80131;SDS011;69442;51.442;10.564;2023-07-08T11:34:47;5.28;;;3.00;;
80131;SDS011;69442;51.442;10.564;2023-07-08T11:37:15;4.03;;;2.63;;
80131;SDS011;69442;51.442;10.564;2023-07-08T11:39:46;4.55;;;3.20;;
80131;SDS011;69442;51.442;10.564;2023-07-08T11:42:21;6.13;;;3.25;;
80131;SDS011;69442;51.442;10.564;2023-07-08T11:44:57;5.50;;;3.22;;
80131;SDS011;69442;51.442;10.564;2023-07-08T11:47:37;6.03;;;2.95;;
80131;SDS011;69442;51.442;10.564;2023-07-08T11:50:39;4.85;;;3.30;;
80131;SDS011;69442;51.442;10.564;2023-07-08T11:53:02;4.22;;;3.50;;
80131;SDS011;69442;51.442;10.564;2023-07-08T11:55:38;3.53;;;2.60;;
80131;SDS011;69442;51.442;10.564;2023-07-08T12:03:38;3.70;;;2.60;;
80131;SDS011;69442;51.442;10.564;2023-07-08T12:08:53;4.40;;;3.10;;
80131;SDS011;69442;51.442;10.564;2023-07-08T12:11:23;4.20;;;3.08;;
80131;SDS011;69442;51.442;10.564;2023-07-08T12:14:01;3.85;;;2.72;;
80131;SDS011;69442;51.442;10.564;2023-07-08T12:16:29;6.68;;;3.45;;
80131;SDS011;69442;51.442;10.564;2023-07-08T12:18:56;3.75;;;2.92;;
80131;SDS011;69442;51.442;10.564;2023-07-08T12:21:23;5.40;;;3.22;;
80131;SDS011;69442;51.442;10.564;2023-07-08T12:23:51;4.78;;;3.15;;
80131;SDS011;69442;51.442;10.564;2023-07-08T12:26:17;4.75;;;2.95;;
80131;SDS011;69442;51.442;10.564;2023-07-08T12:28:43;3.67;;;3.10;;
80131;SDS011;69442;51.442;10.564;2023-07-08T12:31:17;4.22;;;3.33;;
80131;SDS011;69442;51.442;10.564;2023-07-08T12:33:47;3.97;;;3.05;;
80131;SDS011;69442;51.442;10.564;2023-07-08T12:36:15;5.18;;;3.25;;
80131;SDS011;69442;51.442;10.564;2023-07-08T12:38:53;4.40;;;3.25;;
80131;SDS011;69442;51.442;10.564;2023-07-08T12:43:51;4.15;;;3.10;;
80131;SDS011;69442;51.442;10.564;2023-07-08T12:46:18;3.55;;;2.83;;
80131;SDS011;69442;51.442;10.564;2023-07-08T12:48:45;3.95;;;3.13;;
80131;SDS011;69442;51.442;10.564;2023-07-08T12:51:18;3.90;;;3.00;;
80131;SDS011;69442;51.442;10.564;2023-07-08T12:53:46;4.57;;;3.22;;
80131;SDS011;69442;51.442;10.564;2023-07-08T12:56:12;5.63;;;3.22;;
80131;SDS011;69442;51.442;10.564;2023-07-08T12:58:42;4.22;;;3.10;;
80131;SDS011;69442;51.442;10.564;2023-07-08T13:01:12;4.38;;;3.35;;
80131;SDS011;69442;51.442;10.564;2023-07-08T13:03:45;4.88;;;3.05;;
80131;SDS011;69442;51.442;10.564;2023-07-08T13:06:17;4.80;;;3.05;;
80131;SDS011;69442;51.442;10.564;2023-07-08T13:08:46;4.55;;;3.25;;
80131;SDS011;69442;51.442;10.564;2023-07-08T13:11:16;4.65;;;3.30;;
80131;SDS011;69442;51.442;10.564;2023-07-08T13:13:52;3.90;;;2.90;;
80131;SDS011;69442;51.442;10.564;2023-07-08T13:16:22;5.18;;;3.72;;
80131;SDS011;69442;51.442;10.564;2023-07-08T13:18:51;4.30;;;2.70;;
80131;SDS011;69442;51.442;10.564;2023-07-08T13:21:16;4.18;;;3.22;;
80131;SDS011;69442;51.442;10.564;2023-07-08T13:23:42;5.63;;;3.83;;
80131;SDS011;69442;51.442;10.564;2023-07-08T13:26:15;4.40;;;3.25;;
80131;SDS011;69442;51.442;10.564;2023-07-08T13:28:42;4.43;;;3.63;;
80131;SDS011;69442;51.442;10.564;2023-07-08T13:31:23;2.90;;;2.40;;
80131;SDS011;69442;51.442;10.564;2023-07-08T13:33:50;4.45;;;3.60;;
80131;SDS011;69442;51.442;10.564;2023-07-08T13:36:21;4.20;;;3.17;;
80131;SDS011;69442;51.442;10.564;2023-07-08T13:38:48;4.15;;;3.20;;
80131;SDS011;69442;51.442;10.564;2023-07-08T13:41:19;5.65;;;3.33;;
80131;SDS011;69442;51.442;10.564;2023-07-08T13:43:47;4.03;;;3.13;;
80131;SDS011;69442;51.442;10.564;2023-07-08T13:49:12;4.40;;;3.35;;
80131;SDS011;69442;51.442;10.564;2023-07-08T13:52:13;4.13;;;3.10;;
80131;SDS011;69442;51.442;10.564;2023-07-08T13:54:46;4.35;;;3.13;;
80131;SDS011;69442;51.442;10.564;2023-07-08T13:57:18;3.88;;;3.03;;
80131;SDS011;69442;51.442;10.564;2023-07-08T13:59:45;2.90;;;2.15;;
80131;SDS011;69442;51.442;10.564;2023-07-08T14:02:18;4.40;;;3.55;;
80131;SDS011;69442;51.442;10.564;2023-07-08T14:04:50;5.25;;;4.07;;
80131;SDS011;69442;51.442;10.564;2023-07-08T14:07:18;4.43;;;3.45;;
80131;SDS011;69442;51.442;10.564;2023-07-08T14:09:45;4.10;;;3.40;;
80131;SDS011;69442;51.442;10.564;2023-07-08T14:12:11;3.75;;;3.15;;
80131;SDS011;69442;51.442;10.564;2023-07-08T14:14:36;4.38;;;3.20;;
80131;SDS011;69442;51.442;10.564;2023-07-08T14:17:02;3.53;;;3.10;;
80131;SDS011;69442;51.442;10.564;2023-07-08T14:19:28;3.88;;;3.30;;
80131;SDS011;69442;51.442;10.564;2023-07-08T14:22:00;4.05;;;3.30;;
80131;SDS011;69442;51.442;10.564;2023-07-08T14:24:32;5.80;;;4.07;;
80131;SDS011;69442;51.442;10.564;2023-07-08T14:26:58;6.15;;;4.75;;
80131;SDS011;69442;51.442;10.564;2023-07-08T14:29:24;8.60;;;5.50;;
80131;SDS011;69442;51.442;10.564;2023-07-08T14:31:50;12.95;;;7.25;;
80131;SDS011;69442;51.442;10.564;2023-07-08T14:34:17;9.13;;;7.72;;
80131;SDS011;69442;51.442;10.564;2023-07-08T14:36:48;4.53;;;3.40;;
80131;SDS011;69442;51.442;10.564;2023-07-08T14:39:14;3.88;;;3.20;;
80131;SDS011;69442;51.442;10.564;2023-07-08T14:41:41;6.97;;;6.32;;
80131;SDS011;69442;51.442;10.564;2023-07-08T14:44:41;9.52;;;8.63;;
80131;SDS011;69442;51.442;10.564;2023-07-08T14:47:01;24.60;;;22.40;;
80131;SDS011;69442;51.442;10.564;2023-07-08T14:49:27;20.98;;;19.25;;
80131;SDS011;69442;51.442;10.564;2023-07-08T14:51:53;5.20;;;3.38;;
80131;SDS011;69442;51.442;10.564;2023-07-08T14:54:19;4.40;;;3.30;;
80131;SDS011;69442;51.442;10.564;2023-07-08T14:56:46;5.03;;;3.58;;
80131;SDS011;69442;51.442;10.564;2023-07-08T14:59:13;4.03;;;3.63;;
80131;SDS011;69442;51.442;10.564;2023-07-08T15:01:43;4.05;;;2.90;;
80131;SDS011;69442;51.442;10.564;2023-07-08T15:04:10;4.47;;;3.47;;
80131;SDS011;69442;51.442;10.564;2023-07-08T15:06:37;3.97;;;3.38;;
80131;SDS011;69442;51.442;10.564;2023-07-08T15:09:02;3.90;;;3.20;;
80131;SDS011;69442;51.442;10.564;2023-07-08T15:11:28;4.20;;;3.10;;
80131;SDS011;69442;51.442;10.564;2023-07-08T15:13:53;4.70;;;3.55;;
80131;SDS011;69442;51.442;10.564;2023-07-08T15:16:19;5.18;;;3.42;;
80131;SDS011;69442;51.442;10.564;2023-07-08T15:18:45;4.15;;;3.40;;
80131;SDS011;69442;51.442;10.564;2023-07-08T15:21:14;4.57;;;3.40;;
80131;SDS011;69442;51.442;10.564;2023-07-08T15:23:40;4.65;;;3.13;;
80131;SDS011;69442;51.442;10.564;2023-07-08T15:26:08;4.55;;;3.40;;
80131;SDS011;69442;51.442;10.564;2023-07-08T15:28:39;5.93;;;3.78;;
80131;SDS011;69442;51.442;10.564;2023-07-08T15:31:18;3.80;;;3.10;;
80131;SDS011;69442;51.442;10.564;2023-07-08T15:33:49;4.22;;;3.20;;
80131;SDS011;69442;51.442;10.564;2023-07-08T15:36:15;3.88;;;3.00;;
80131;SDS011;69442;51.442;10.564;2023-07-08T15:38:41;5.15;;;3.40;;
80131;SDS011;69442;51.442;10.564;2023-07-08T15:43:46;4.70;;;3.20;;
80131;SDS011;69442;51.442;10.564;2023-07-08T15:46:13;4.80;;;3.17;;